createdAt,value
2018-04-12T00:00:52.599Z,0.00
2018-04-12T00:02:45.535Z,0.00
2018-04-12T00:03:45.519Z,0.00
2018-04-12T00:05:38.417Z,0.00
2018-04-12T00:06:38.441Z,0.00
2018-04-12T00:08:31.357Z,0.00
2018-04-12T00:09:31.357Z,0.00
2018-04-12T00:11:24.263Z,0.00
2018-04-12T00:12:24.279Z,0.00
2018-04-12T00:14:17.204Z,0.00
2018-04-12T00:15:17.204Z,0.00
2018-04-12T00:17:10.105Z,0.00
2018-04-12T00:18:10.122Z,0.00
2018-04-12T00:20:03.044Z,0.00
2018-04-12T00:21:03.046Z,0.00
2018-04-12T00:22:55.952Z,0.00
2018-04-12T00:23:55.971Z,0.00
2018-04-12T00:25:48.891Z,0.00
2018-04-12T00:26:48.900Z,0.00
2018-04-12T00:28:41.813Z,0.00
2018-04-12T00:29:41.823Z,0.00
2018-04-12T00:31:34.724Z,0.00
2018-04-12T00:32:34.749Z,0.00
2018-04-12T00:34:27.665Z,0.00
2018-04-12T00:35:27.663Z,0.00
2018-04-12T00:37:20.562Z,0.00
2018-04-12T00:38:20.582Z,0.00
2018-04-12T00:40:13.508Z,0.00
2018-04-12T00:41:13.505Z,0.00
2018-04-12T00:43:06.407Z,0.00
2018-04-12T00:44:06.425Z,0.00
2018-04-12T00:45:59.346Z,0.00
2018-04-12T00:46:59.347Z,0.00
2018-04-12T00:48:52.282Z,0.00
2018-04-12T00:49:52.265Z,0.00
2018-04-12T00:51:45.168Z,0.00
2018-04-12T00:52:52.305Z,0.00
2018-04-12T00:54:38.106Z,0.00
2018-04-12T00:55:45.220Z,0.00
2018-04-12T00:57:31.008Z,0.00
2018-04-12T00:58:38.141Z,0.00
2018-04-12T01:00:31.070Z,0.00
2018-04-12T01:01:23.948Z,0.00
2018-04-12T01:03:16.869Z,0.00
2018-04-12T01:04:24.003Z,0.00
2018-04-12T01:06:09.789Z,0.00
2018-04-12T01:07:16.906Z,0.00
2018-04-12T01:09:09.813Z,0.00
2018-04-12T01:10:09.832Z,0.00
2018-04-12T01:12:02.745Z,0.00
2018-04-12T01:13:02.746Z,0.00
2018-04-12T01:14:48.530Z,0.00
2018-04-12T01:15:55.666Z,0.00
2018-04-12T01:17:48.583Z,0.00
2018-04-12T01:18:48.588Z,0.00
2018-04-12T01:20:41.480Z,0.00
2018-04-12T01:21:41.500Z,0.00
2018-04-12T01:23:27.303Z,0.00
2018-04-12T01:24:27.304Z,0.00
2018-04-12T01:26:20.220Z,0.00
2018-04-12T01:27:20.224Z,0.00
2018-04-12T01:29:13.119Z,0.00
2018-04-12T01:30:13.138Z,0.00
2018-04-12T01:32:06.058Z,0.00
2018-04-12T01:33:06.058Z,0.00
2018-04-12T01:34:58.958Z,0.00
2018-04-12T01:35:58.984Z,0.00
2018-04-12T01:37:51.894Z,0.00
2018-04-12T01:38:51.892Z,0.00
2018-04-12T01:40:44.795Z,0.00
2018-04-12T01:41:44.814Z,0.00
2018-04-12T01:43:37.730Z,0.00
2018-04-12T01:44:37.730Z,0.00
2018-04-12T01:46:30.649Z,0.00
2018-04-12T01:47:30.666Z,0.00
2018-04-12T01:49:23.607Z,0.00
2018-04-12T01:50:23.570Z,0.00
2018-04-12T01:52:16.488Z,0.00
2018-04-12T01:53:16.518Z,0.00
2018-04-12T01:55:09.395Z,0.00
2018-04-12T01:56:09.409Z,0.00
2018-04-12T01:58:02.331Z,0.00
2018-04-12T01:59:02.345Z,0.00
2018-04-12T02:00:55.254Z,0.00
2018-04-12T02:01:55.267Z,0.00
2018-04-12T02:03:48.174Z,0.00
2018-04-12T02:04:48.169Z,0.00
2018-04-12T02:06:41.074Z,0.00
2018-04-12T02:07:41.093Z,0.00
2018-04-12T02:09:34.047Z,0.00
2018-04-12T02:10:34.009Z,0.00
2018-04-12T02:12:26.925Z,0.00
2018-04-12T02:13:26.927Z,0.00
2018-04-12T02:15:19.834Z,0.00
2018-04-12T02:16:19.851Z,0.00
2018-04-12T02:18:12.768Z,0.00
2018-04-12T02:19:12.767Z,0.00
2018-04-12T02:21:05.671Z,0.00
2018-04-12T02:22:05.688Z,0.00
2018-04-12T02:23:58.606Z,0.00
2018-04-12T02:24:58.606Z,0.00
2018-04-12T02:26:51.731Z,0.00
2018-04-12T02:27:51.765Z,0.00
2018-04-12T02:29:44.669Z,0.00
2018-04-12T02:30:44.667Z,0.00
2018-04-12T02:32:37.592Z,0.00
2018-04-12T02:33:37.589Z,0.00
2018-04-12T02:35:30.488Z,0.00
2018-04-12T02:36:30.506Z,0.00
2018-04-12T02:38:23.421Z,0.00
2018-04-12T02:39:23.423Z,0.00
2018-04-12T02:41:16.338Z,0.00
2018-04-12T02:42:16.393Z,0.00
2018-04-12T02:44:09.259Z,0.00
2018-04-12T02:45:09.263Z,0.00
2018-04-12T02:47:02.161Z,0.00
2018-04-12T02:48:02.182Z,0.00
2018-04-12T02:49:55.097Z,0.00
2018-04-12T02:50:55.098Z,0.00
2018-04-12T02:52:48.013Z,0.00
2018-04-12T02:53:48.013Z,0.00
2018-04-12T02:55:40.913Z,0.00
2018-04-12T02:56:40.931Z,0.00
2018-04-12T02:58:33.845Z,0.00
2018-04-12T02:59:33.846Z,0.00
2018-04-12T03:01:26.745Z,0.00
2018-04-12T03:02:26.765Z,0.00
2018-04-12T03:04:19.684Z,0.00
2018-04-12T03:05:19.682Z,0.00
2018-04-12T03:07:13.576Z,0.00
2018-04-12T03:08:13.595Z,0.00
2018-04-12T03:10:06.516Z,0.00
2018-04-12T03:11:06.511Z,0.00
2018-04-12T03:12:59.428Z,0.00
2018-04-12T03:13:59.428Z,0.00
2018-04-12T03:15:52.471Z,0.00
2018-04-12T03:16:52.492Z,0.00
2018-04-12T03:18:45.410Z,0.00
2018-04-12T03:19:45.408Z,0.00
2018-04-12T03:21:38.306Z,0.00
2018-04-12T03:22:38.325Z,0.00
2018-04-12T03:24:32.322Z,0.00
2018-04-12T03:25:32.240Z,0.00
2018-04-12T03:27:25.135Z,0.00
2018-04-12T03:28:25.157Z,0.00
2018-04-12T03:30:18.073Z,0.00
2018-04-12T03:31:18.073Z,0.00
2018-04-12T03:33:10.991Z,0.00
2018-04-12T03:34:10.989Z,0.00
2018-04-12T03:36:03.887Z,0.00
2018-04-12T03:37:03.906Z,0.00
2018-04-12T03:38:56.821Z,0.00
2018-04-12T03:39:56.821Z,0.00
2018-04-12T03:41:49.731Z,0.00
2018-04-12T03:42:49.737Z,0.00
2018-04-12T03:44:42.656Z,0.00
2018-04-12T03:45:42.655Z,0.00
2018-04-12T03:47:35.556Z,0.00
2018-04-12T03:48:35.589Z,0.00
2018-04-12T03:50:28.558Z,0.00
2018-04-12T03:51:28.496Z,0.00
2018-04-12T03:53:21.413Z,0.00
2018-04-12T03:54:21.411Z,0.00
2018-04-12T03:56:14.310Z,0.00
2018-04-12T03:57:14.336Z,0.00
2018-04-12T03:59:07.247Z,0.00
2018-04-12T04:00:07.249Z,0.00
2018-04-12T04:02:00.335Z,0.00
2018-04-12T04:03:00.353Z,0.00
2018-04-12T04:04:53.290Z,4.00
2018-04-12T04:05:53.271Z,4.00
2018-04-12T04:07:46.178Z,4.00
2018-04-12T04:08:46.194Z,4.00
2018-04-12T04:10:39.117Z,8.00
2018-04-12T04:11:39.115Z,8.00
2018-04-12T04:13:32.036Z,8.00
2018-04-12T04:14:32.045Z,12.00
2018-04-12T04:16:24.935Z,12.00
2018-04-12T04:17:24.954Z,16.00
2018-04-12T04:19:17.874Z,24.00
2018-04-12T04:20:17.872Z,28.00
2018-04-12T04:22:10.917Z,36.00
2018-04-12T04:23:10.939Z,40.00
2018-04-12T04:25:03.857Z,52.00
2018-04-12T04:26:03.857Z,60.00
2018-04-12T04:27:56.756Z,72.00
2018-04-12T04:28:56.777Z,84.00
2018-04-12T04:30:49.693Z,104.00
2018-04-12T04:31:49.748Z,116.00
2018-04-12T04:33:42.611Z,124.00
2018-04-12T04:34:42.609Z,132.00
2018-04-12T04:36:35.510Z,144.00
2018-04-12T04:37:35.529Z,140.00
2018-04-12T04:39:28.448Z,180.00
2018-04-12T04:40:28.447Z,188.00
2018-04-12T04:42:21.348Z,196.00
2018-04-12T04:43:21.368Z,180.00
2018-04-12T04:45:14.288Z,204.00
2018-04-12T04:46:14.292Z,224.00
2018-04-12T04:48:07.214Z,208.00
2018-04-12T04:49:07.206Z,220.00
2018-04-12T04:51:00.144Z,296.00
2018-04-12T04:52:00.144Z,308.00
2018-04-12T04:53:54.055Z,352.00
2018-04-12T04:54:54.118Z,364.00
2018-04-12T04:56:46.954Z,428.00
2018-04-12T04:57:46.973Z,504.00
2018-04-12T04:59:39.895Z,588.00
2018-04-12T05:00:39.892Z,604.00
2018-04-12T05:02:32.794Z,656.00
2018-04-12T05:03:32.814Z,748.00
2018-04-12T05:05:25.728Z,748.00
2018-04-12T05:06:25.732Z,724.00
2018-04-12T05:08:18.628Z,688.00
2018-04-12T05:09:18.647Z,752.00
2018-04-12T05:11:11.568Z,780.00
2018-04-12T05:12:11.566Z,780.00
2018-04-12T05:14:04.486Z,976.00
2018-04-12T05:15:04.502Z,1200.00
2018-04-12T05:16:57.383Z,1324.00
2018-04-12T05:17:57.404Z,1428.00
2018-04-12T05:19:50.328Z,1384.00
2018-04-12T05:20:50.343Z,1400.00
2018-04-12T05:22:43.224Z,1452.00
2018-04-12T05:23:43.245Z,1572.00
2018-04-12T05:25:36.162Z,1732.00
2018-04-12T05:26:36.167Z,1888.00
2018-04-12T05:28:29.069Z,2072.00
2018-04-12T05:29:29.088Z,2100.00
2018-04-12T05:31:22.006Z,1708.00
2018-04-12T05:32:22.008Z,1792.00
2018-04-12T05:34:14.928Z,2428.00
2018-04-12T05:35:14.927Z,2480.00
2018-04-12T05:37:07.830Z,1816.00
2018-04-12T05:38:07.847Z,1952.00
2018-04-12T05:40:00.768Z,2112.00
2018-04-12T05:41:00.769Z,2032.00
2018-04-12T05:42:53.669Z,2328.00
2018-04-12T05:43:53.689Z,2368.00
2018-04-12T05:45:46.608Z,2232.00
2018-04-12T05:46:46.612Z,2468.00
2018-04-12T05:48:39.512Z,2592.00
2018-04-12T05:49:39.532Z,2716.00
2018-04-12T05:51:32.451Z,2980.00
2018-04-12T05:52:32.453Z,2784.00
2018-04-12T05:54:25.371Z,2704.00
2018-04-12T05:55:25.372Z,2496.00
2018-04-12T05:57:18.271Z,2304.00
2018-04-12T05:58:18.296Z,2160.00
2018-04-12T06:00:11.214Z,2552.00
2018-04-12T06:01:11.216Z,2696.00
2018-04-12T06:03:04.113Z,3088.00
2018-04-12T06:04:04.133Z,3064.00
2018-04-12T06:05:57.053Z,2692.00
2018-04-12T06:06:57.053Z,2688.00
2018-04-12T06:08:49.959Z,2732.00
2018-04-12T06:09:49.976Z,2624.00
2018-04-12T06:11:42.896Z,2572.00
2018-04-12T06:12:42.947Z,2964.00
2018-04-12T06:14:35.813Z,2456.00
2018-04-12T06:15:35.819Z,2652.00
2018-04-12T06:17:28.716Z,2884.00
2018-04-12T06:18:28.743Z,2860.00
2018-04-12T06:20:21.658Z,2980.00
2018-04-12T06:21:21.681Z,2940.00
2018-04-12T06:23:14.557Z,2904.00
2018-04-12T06:24:14.576Z,3532.00
2018-04-12T06:26:07.496Z,3428.00
2018-04-12T06:27:07.497Z,3680.00
2018-04-12T06:29:00.402Z,4120.00
2018-04-12T06:30:00.434Z,4368.00
2018-04-12T06:31:53.347Z,4428.00
2018-04-12T06:32:53.340Z,3944.00
2018-04-12T06:34:46.261Z,3572.00
2018-04-12T06:35:46.261Z,4064.00
2018-04-12T06:37:39.161Z,4208.00
2018-04-12T06:38:39.180Z,3788.00
2018-04-12T06:40:32.098Z,4348.00
2018-04-12T06:41:32.097Z,4144.00
2018-04-12T06:43:25.005Z,4180.00
2018-04-12T06:44:25.031Z,4092.00
2018-04-12T06:46:17.944Z,5076.00
2018-04-12T06:47:17.945Z,5624.00
2018-04-12T06:49:10.844Z,5388.00
2018-04-12T06:50:10.864Z,5808.00
2018-04-12T06:52:03.785Z,5496.00
2018-04-12T06:53:03.788Z,5056.00
2018-04-12T06:54:56.707Z,5396.00
2018-04-12T06:55:56.709Z,4564.00
2018-04-12T06:57:49.609Z,4668.00
2018-04-12T06:58:49.626Z,4552.00
2018-04-12T07:00:42.551Z,4548.00
2018-04-12T07:01:42.550Z,4712.00
2018-04-12T07:03:35.455Z,4584.00
2018-04-12T07:04:35.474Z,4692.00
2018-04-12T07:06:28.397Z,5156.00
2018-04-12T07:07:28.406Z,5140.00
2018-04-12T07:09:21.294Z,5412.00
2018-04-12T07:10:21.337Z,6232.00
2018-04-12T07:12:14.236Z,5936.00
2018-04-12T07:13:14.236Z,6168.00
2018-04-12T07:15:07.153Z,6184.00
2018-04-12T07:16:07.155Z,6500.00
2018-04-12T07:18:00.059Z,6388.00
2018-04-12T07:19:00.076Z,6744.00
2018-04-12T07:20:52.997Z,6532.00
2018-04-12T07:21:52.997Z,7312.00
2018-04-12T07:23:45.905Z,7200.00
2018-04-12T07:24:45.920Z,6944.00
2018-04-12T07:26:38.835Z,6252.00
2018-04-12T07:27:38.838Z,6800.00
2018-04-12T07:29:31.738Z,5452.00
2018-04-12T07:30:31.758Z,5068.00
2018-04-12T07:32:25.701Z,5820.00
2018-04-12T07:33:25.694Z,5720.00
2018-04-12T07:35:18.669Z,5056.00
2018-04-12T07:36:18.677Z,4772.00
2018-04-12T07:38:11.592Z,6204.00
2018-04-12T07:39:11.594Z,6208.00
2018-04-12T07:41:04.515Z,7356.00
2018-04-12T07:42:04.514Z,7568.00
2018-04-12T07:43:57.419Z,8128.00
2018-04-12T07:44:57.438Z,8140.00
2018-04-12T07:46:50.363Z,8844.00
2018-04-12T07:47:50.360Z,9100.00
2018-04-12T07:49:43.263Z,8844.00
2018-04-12T07:50:43.284Z,9280.00
2018-04-12T07:52:36.244Z,8536.00
2018-04-12T07:53:36.246Z,7940.00
2018-04-12T07:55:29.169Z,9128.00
2018-04-12T07:56:29.168Z,8812.00
2018-04-12T07:58:22.073Z,8236.00
2018-04-12T07:59:22.093Z,7784.00
2018-04-12T08:01:15.015Z,7624.00
2018-04-12T08:02:15.016Z,7856.00
2018-04-12T08:04:07.921Z,6972.00
2018-04-12T08:05:07.942Z,7172.00
2018-04-12T08:07:00.870Z,7684.00
2018-04-12T08:08:00.876Z,7948.00
2018-04-12T08:09:53.776Z,8996.00
2018-04-12T08:10:53.798Z,9616.00
2018-04-12T08:12:46.719Z,11516.00
2018-04-12T08:13:46.720Z,12368.00
2018-04-12T08:15:39.644Z,13960.00
2018-04-12T08:16:39.647Z,14644.00
2018-04-12T08:18:32.564Z,15572.00
2018-04-12T08:19:32.584Z,15576.00
2018-04-12T08:21:25.536Z,15176.00
2018-04-12T08:22:25.535Z,15148.00
2018-04-12T08:24:18.475Z,14544.00
2018-04-12T08:25:18.463Z,15444.00
2018-04-12T08:27:11.385Z,15540.00
2018-04-12T08:28:11.430Z,15608.00
2018-04-12T08:30:04.354Z,15516.00
2018-04-12T08:31:04.374Z,14940.00
2018-04-12T08:32:57.293Z,14496.00
2018-04-12T08:33:57.297Z,14164.00
2018-04-12T08:35:50.223Z,13320.00
2018-04-12T08:36:50.229Z,13096.00
2018-04-12T08:38:43.132Z,11704.00
2018-04-12T08:39:43.154Z,12348.00
2018-04-12T08:41:36.086Z,13016.00
2018-04-12T08:42:36.083Z,13136.00
2018-04-12T08:44:30.140Z,12804.00
2018-04-12T08:45:31.295Z,12460.00
2018-04-12T08:47:23.088Z,12748.00
2018-04-12T08:48:23.093Z,12960.00
2018-04-12T08:50:16.997Z,12760.00
2018-04-12T08:51:17.018Z,13512.00
2018-04-12T08:53:09.945Z,15156.00
2018-04-12T08:54:09.946Z,15416.00
2018-04-12T08:56:02.869Z,16336.00
2018-04-12T08:57:02.876Z,16452.00
2018-04-12T08:58:55.781Z,19328.00
2018-04-12T08:59:55.802Z,18976.00
2018-04-12T09:01:48.735Z,15856.00
2018-04-12T09:02:48.742Z,15192.00
2018-04-12T09:04:41.648Z,12620.00
2018-04-12T09:05:41.674Z,11664.00
2018-04-12T09:07:34.595Z,10728.00
2018-04-12T09:08:34.604Z,10344.00
2018-04-12T09:10:27.507Z,9908.00
2018-04-12T09:11:27.529Z,10620.00
2018-04-12T09:13:20.456Z,11380.00
2018-04-12T09:14:20.459Z,13496.00
2018-04-12T09:16:13.558Z,13424.00
2018-04-12T09:17:13.563Z,13812.00
2018-04-12T09:19:06.476Z,15220.00
2018-04-12T09:20:06.496Z,15604.00
2018-04-12T09:21:59.423Z,16208.00
2018-04-12T09:22:59.423Z,16612.00
2018-04-12T09:24:52.327Z,16020.00
2018-04-12T09:25:52.349Z,15600.00
2018-04-12T09:27:45.307Z,14396.00
2018-04-12T09:28:45.281Z,13980.00
2018-04-12T09:30:38.194Z,13876.00
2018-04-12T09:31:38.222Z,13752.00
2018-04-12T09:33:31.145Z,13620.00
2018-04-12T09:34:31.147Z,13420.00
2018-04-12T09:36:24.078Z,12980.00
2018-04-12T09:37:24.090Z,12776.00
2018-04-12T09:39:16.992Z,12948.00
2018-04-12T09:40:17.016Z,13204.00
2018-04-12T09:42:09.939Z,13040.00
2018-04-12T09:43:09.943Z,12744.00
2018-04-12T09:45:02.856Z,13076.00
2018-04-12T09:46:02.872Z,13696.00
2018-04-12T09:47:55.806Z,14568.00
2018-04-12T09:48:55.808Z,14544.00
2018-04-12T09:50:48.716Z,15032.00
2018-04-12T09:51:48.737Z,15100.00
2018-04-12T09:53:41.664Z,15172.00
2018-04-12T09:54:41.668Z,15084.00
2018-04-12T09:56:34.596Z,15360.00
2018-04-12T09:57:34.603Z,15448.00
2018-04-12T09:59:27.508Z,14944.00
2018-04-12T10:00:27.527Z,14776.00
2018-04-12T10:02:20.456Z,14156.00
2018-04-12T10:03:20.461Z,13416.00
2018-04-12T10:05:13.375Z,12296.00
2018-04-12T10:06:13.397Z,11988.00
2018-04-12T10:08:06.324Z,11600.00
2018-04-12T10:09:06.326Z,11916.00
2018-04-12T10:10:59.460Z,11764.00
2018-04-12T10:11:59.485Z,11456.00
2018-04-12T10:13:52.418Z,11388.00
2018-04-12T10:14:52.416Z,11488.00
2018-04-12T10:16:45.353Z,11456.00
2018-04-12T10:17:45.348Z,11904.00
2018-04-12T10:19:38.257Z,11132.00
2018-04-12T10:20:38.279Z,10272.00
2018-04-12T10:22:31.211Z,9156.00
2018-04-12T10:23:31.213Z,8460.00
2018-04-12T10:25:24.123Z,8108.00
2018-04-12T10:26:24.144Z,7880.00
2018-04-12T10:28:17.076Z,7548.00
2018-04-12T10:29:17.081Z,7564.00
2018-04-12T10:31:09.997Z,7836.00
2018-04-12T10:32:10.025Z,7756.00
2018-04-12T10:34:02.954Z,8004.00
2018-04-12T10:35:02.957Z,7928.00
2018-04-12T10:36:55.887Z,8776.00
2018-04-12T10:37:55.895Z,9552.00
2018-04-12T10:39:48.800Z,10396.00
2018-04-12T10:40:48.820Z,10644.00
2018-04-12T10:42:41.747Z,10588.00
2018-04-12T10:43:41.751Z,10416.00
2018-04-12T10:45:34.659Z,10204.00
2018-04-12T10:46:34.682Z,9576.00
2018-04-12T10:48:27.608Z,9960.00
2018-04-12T10:49:27.612Z,10024.00
2018-04-12T10:51:20.519Z,10396.00
2018-04-12T10:52:20.542Z,10752.00
2018-04-12T10:54:13.465Z,11248.00
2018-04-12T10:55:13.554Z,11412.00
2018-04-12T10:57:06.399Z,11040.00
2018-04-12T10:58:06.404Z,10936.00
2018-04-12T10:59:59.321Z,10376.00
2018-04-12T11:00:59.337Z,10000.00
2018-04-12T11:02:52.263Z,9276.00
2018-04-12T11:03:52.265Z,8992.00
2018-04-12T11:05:45.172Z,8416.00
2018-04-12T11:06:45.198Z,8300.00
2018-04-12T11:08:38.128Z,8412.00
2018-04-12T11:09:38.134Z,8368.00
2018-04-12T11:11:31.041Z,8388.00
2018-04-12T11:12:31.096Z,8216.00
2018-04-12T11:14:23.990Z,7980.00
2018-04-12T11:15:23.995Z,8128.00
2018-04-12T11:17:16.922Z,8260.00
2018-04-12T11:18:16.991Z,8824.00
2018-04-12T11:20:10.830Z,9744.00
2018-04-12T11:21:10.854Z,9836.00
2018-04-12T11:23:03.876Z,10016.00
2018-04-12T11:24:03.787Z,10064.00
2018-04-12T11:25:56.712Z,9996.00
2018-04-12T11:26:58.292Z,10068.00
2018-04-12T11:28:49.702Z,9472.00
2018-04-12T11:29:49.685Z,8868.00
2018-04-12T11:31:42.630Z,7652.00
2018-04-12T11:32:42.637Z,7252.00
2018-04-12T11:34:35.587Z,7184.00
2018-04-12T11:35:35.521Z,7332.00
2018-04-12T11:37:28.447Z,7368.00
2018-04-12T11:38:28.453Z,7304.00
2018-04-12T11:40:21.396Z,7340.00
2018-04-12T11:41:21.383Z,7436.00
2018-04-12T11:43:14.310Z,8220.00
2018-04-12T11:44:14.313Z,8716.00
2018-04-12T11:46:07.226Z,9712.00
2018-04-12T11:47:07.250Z,10300.00
2018-04-12T11:49:00.189Z,11096.00
2018-04-12T11:50:00.209Z,10876.00
2018-04-12T11:51:53.094Z,9480.00
2018-04-12T11:52:53.120Z,9160.00
2018-04-12T11:54:46.041Z,9124.00
2018-04-12T11:55:46.055Z,9360.00
2018-04-12T11:57:38.974Z,9844.00
2018-04-12T11:58:38.978Z,9776.00
2018-04-12T12:00:31.897Z,8960.00
2018-04-12T12:01:31.923Z,8600.00
2018-04-12T12:03:24.850Z,8412.00
2018-04-12T12:04:24.849Z,8004.00
2018-04-12T12:06:17.759Z,7440.00
2018-04-12T12:07:17.786Z,6956.00
2018-04-12T12:09:10.712Z,6264.00
2018-04-12T12:10:10.717Z,5908.00
2018-04-12T12:12:03.625Z,5400.00
2018-04-12T12:13:03.652Z,5108.00
2018-04-12T12:14:56.625Z,4748.00
2018-04-12T12:15:56.584Z,4572.00
2018-04-12T12:17:49.525Z,3932.00
2018-04-12T12:18:49.527Z,3796.00
2018-04-12T12:20:42.428Z,3944.00
2018-04-12T12:21:42.534Z,4084.00
2018-04-12T12:23:35.382Z,4320.00
2018-04-12T12:24:35.434Z,4412.00
2018-04-12T12:26:28.297Z,4428.00
2018-04-12T12:27:28.320Z,4416.00
2018-04-12T12:29:21.248Z,4460.00
2018-04-12T12:30:21.253Z,4416.00
2018-04-12T12:32:14.163Z,4360.00
2018-04-12T12:33:14.189Z,4268.00
2018-04-12T12:35:07.127Z,4132.00
2018-04-12T12:36:07.128Z,4136.00
2018-04-12T12:38:00.064Z,4152.00
2018-04-12T12:39:00.080Z,4192.00
2018-04-12T12:40:52.984Z,4192.00
2018-04-12T12:41:52.995Z,4168.00
2018-04-12T12:43:45.944Z,4120.00
2018-04-12T12:44:45.928Z,4072.00
2018-04-12T12:46:38.836Z,4064.00
2018-04-12T12:47:38.860Z,4088.00
2018-04-12T12:49:31.793Z,4056.00
2018-04-12T12:50:31.801Z,4016.00
2018-04-12T12:52:24.708Z,3976.00
2018-04-12T12:53:24.732Z,3988.00
2018-04-12T12:55:17.657Z,3988.00
2018-04-12T12:56:17.662Z,4000.00
2018-04-12T12:58:10.592Z,4028.00
2018-04-12T12:59:10.597Z,4060.00
2018-04-12T13:01:03.512Z,4076.00
2018-04-12T13:02:03.531Z,4084.00
2018-04-12T13:03:56.464Z,4068.00
2018-04-12T13:04:56.464Z,4100.00
2018-04-12T13:06:49.441Z,4172.00
2018-04-12T13:07:49.398Z,4184.00
2018-04-12T13:09:42.321Z,4192.00
2018-04-12T13:10:42.326Z,4180.00
2018-04-12T13:12:35.234Z,4048.00
2018-04-12T13:13:35.263Z,4228.00
2018-04-12T13:15:28.187Z,4304.00
2018-04-12T13:16:28.190Z,4264.00
2018-04-12T13:18:21.139Z,4240.00
2018-04-12T13:19:21.149Z,4268.00
2018-04-12T13:21:14.033Z,4276.00
2018-04-12T13:22:14.057Z,4220.00
2018-04-12T13:24:06.979Z,4124.00
2018-04-12T13:25:06.986Z,4096.00
2018-04-12T13:26:59.900Z,4100.00
2018-04-12T13:27:59.920Z,4108.00
2018-04-12T13:29:52.853Z,4160.00
2018-04-12T13:30:52.863Z,4284.00
2018-04-12T13:32:45.769Z,4400.00
2018-04-12T13:33:45.792Z,4440.00
2018-04-12T13:35:38.717Z,4496.00
2018-04-12T13:36:38.722Z,4560.00
2018-04-12T13:38:31.630Z,4564.00
2018-04-12T13:39:31.654Z,4588.00
2018-04-12T13:41:24.586Z,4768.00
2018-04-12T13:42:24.592Z,4840.00
2018-04-12T13:44:17.643Z,4836.00
2018-04-12T13:45:17.607Z,4780.00
2018-04-12T13:47:10.569Z,4696.00
2018-04-12T13:48:10.537Z,4664.00
2018-04-12T13:50:03.466Z,4660.00
2018-04-12T13:51:03.469Z,4648.00
2018-04-12T13:52:56.961Z,4680.00
2018-04-12T13:53:56.848Z,4756.00
2018-04-12T13:55:49.779Z,4944.00
2018-04-12T13:56:49.788Z,5068.00
2018-04-12T13:58:42.698Z,5208.00
2018-04-12T13:59:42.721Z,5296.00
2018-04-12T14:01:36.653Z,5524.00
2018-04-12T14:02:36.670Z,5704.00
2018-04-12T14:04:29.585Z,5700.00
2018-04-12T14:05:29.592Z,5596.00
2018-04-12T14:07:22.553Z,5356.00
2018-04-12T14:08:22.550Z,5616.00
2018-04-12T14:10:15.482Z,6760.00
2018-04-12T14:11:15.487Z,7836.00
2018-04-12T14:13:08.398Z,8456.00
2018-04-12T14:14:08.498Z,8448.00
2018-04-12T14:16:01.352Z,7812.00
2018-04-12T14:17:01.366Z,7324.00
2018-04-12T14:18:54.324Z,7076.00
2018-04-12T14:19:54.311Z,7200.00
2018-04-12T14:21:47.239Z,8148.00
2018-04-12T14:22:47.249Z,8076.00
2018-04-12T14:24:40.173Z,8064.00
2018-04-12T14:25:40.181Z,7752.00
2018-04-12T14:27:33.090Z,8396.00
2018-04-12T14:28:33.113Z,8888.00
2018-04-12T14:30:26.044Z,9612.00
2018-04-12T14:31:26.050Z,9952.00
2018-04-12T14:33:19.455Z,10272.00
2018-04-12T14:34:19.481Z,10268.00
2018-04-12T14:36:12.469Z,10200.00
2018-04-12T14:37:12.421Z,10140.00
2018-04-12T14:39:05.328Z,10744.00
2018-04-12T14:40:05.403Z,10236.00
2018-04-12T14:41:58.285Z,10036.00
2018-04-12T14:42:58.291Z,10032.00
2018-04-12T14:44:51.221Z,10036.00
2018-04-12T14:45:51.229Z,10144.00
2018-04-12T14:47:44.143Z,9844.00
2018-04-12T14:48:44.172Z,9700.00
2018-04-12T14:50:37.101Z,9660.00
2018-04-12T14:51:37.207Z,9440.00
2018-04-12T14:53:30.039Z,9640.00
2018-04-12T14:54:30.056Z,9652.00
2018-04-12T14:56:22.979Z,9072.00
2018-04-12T14:57:22.986Z,8936.00
2018-04-12T14:59:15.900Z,8876.00
2018-04-12T15:00:15.932Z,8740.00
2018-04-12T15:02:08.856Z,8780.00
2018-04-12T15:03:08.874Z,8996.00
2018-04-12T15:05:01.796Z,8856.00
2018-04-12T15:06:01.852Z,8744.00
2018-04-12T15:07:54.716Z,8604.00
2018-04-12T15:08:54.823Z,8468.00
2018-04-12T15:10:47.676Z,8388.00
2018-04-12T15:11:47.686Z,8244.00
2018-04-12T15:13:40.819Z,8156.00
2018-04-12T15:14:40.839Z,8224.00
2018-04-12T15:16:33.779Z,7932.00
2018-04-12T15:17:33.786Z,7788.00
2018-04-12T15:19:26.693Z,8084.00
2018-04-12T15:20:26.724Z,8080.00
2018-04-12T15:22:19.740Z,7952.00
2018-04-12T15:23:19.665Z,7824.00
2018-04-12T15:25:12.589Z,7976.00
2018-04-12T15:26:12.599Z,8148.00
2018-04-12T15:28:05.506Z,8016.00
2018-04-12T15:29:05.541Z,7444.00
2018-04-12T15:30:58.463Z,6916.00
2018-04-12T15:31:58.504Z,6812.00
2018-04-12T15:33:51.386Z,6472.00
2018-04-12T15:34:51.411Z,6272.00
2018-04-12T15:36:44.348Z,6012.00
2018-04-12T15:37:44.352Z,5924.00
2018-04-12T15:39:37.265Z,5824.00
2018-04-12T15:40:37.291Z,5676.00
2018-04-12T15:42:30.222Z,5168.00
2018-04-12T15:43:30.231Z,4896.00
2018-04-12T15:45:23.161Z,4720.00
2018-04-12T15:46:23.169Z,4800.00
2018-04-12T15:48:16.486Z,5152.00
2018-04-12T15:49:16.511Z,5308.00
2018-04-12T15:51:09.455Z,5384.00
2018-04-12T15:52:09.466Z,5480.00
2018-04-12T15:54:02.389Z,5888.00
2018-04-12T15:55:02.440Z,6036.00
2018-04-12T15:56:55.362Z,6028.00
2018-04-12T15:57:55.370Z,5976.00
2018-04-12T15:59:48.327Z,5876.00
2018-04-12T16:00:48.343Z,6024.00
2018-04-12T16:02:41.426Z,6444.00
2018-04-12T16:03:41.463Z,6508.00
2018-04-12T16:05:34.325Z,6404.00
2018-04-12T16:06:34.333Z,6244.00
2018-04-12T16:08:27.261Z,5996.00
2018-04-12T16:09:27.326Z,5880.00
2018-04-12T16:11:20.343Z,5724.00
2018-04-12T16:12:20.352Z,5684.00
2018-04-12T16:14:13.394Z,5536.00
2018-04-12T16:15:13.399Z,5532.00
2018-04-12T16:17:06.348Z,5864.00
2018-04-12T16:18:06.355Z,6028.00
2018-04-12T16:19:59.416Z,6156.00
2018-04-12T16:20:59.437Z,6260.00
2018-04-12T16:22:52.979Z,6312.00
2018-04-12T16:23:52.987Z,6280.00
2018-04-12T16:25:45.928Z,6084.00
2018-04-12T16:26:45.933Z,5788.00
2018-04-12T16:28:38.862Z,5136.00
2018-04-12T16:29:38.887Z,4752.00
2018-04-12T16:31:33.068Z,4048.00
2018-04-12T16:32:32.868Z,3700.00
2018-04-12T16:34:25.797Z,3212.00
2018-04-12T16:35:25.819Z,3016.00
2018-04-12T16:37:18.765Z,2712.00
2018-04-12T16:38:18.771Z,2664.00
2018-04-12T16:40:11.718Z,2748.00
2018-04-12T16:41:11.733Z,2828.00
2018-04-12T16:43:04.786Z,2844.00
2018-04-12T16:44:04.787Z,2808.00
2018-04-12T16:45:57.980Z,2668.00
2018-04-12T16:46:57.849Z,2568.00
2018-04-12T16:48:51.279Z,2384.00
2018-04-12T16:49:51.305Z,2316.00
2018-04-12T16:51:44.250Z,2172.00
2018-04-12T16:52:44.311Z,2116.00
2018-04-12T16:54:37.187Z,2040.00
2018-04-12T16:55:37.213Z,2004.00
2018-04-12T16:57:30.159Z,2016.00
2018-04-12T16:58:30.168Z,2020.00
2018-04-12T17:00:23.094Z,1940.00
2018-04-12T17:01:23.121Z,1892.00
2018-04-12T17:03:17.604Z,1864.00
2018-04-12T17:04:17.608Z,1816.00
2018-04-12T17:06:10.661Z,1632.00
2018-04-12T17:07:10.667Z,1524.00
2018-04-12T17:09:03.700Z,1364.00
2018-04-12T17:10:03.727Z,1300.00
2018-04-12T17:11:56.677Z,1204.00
2018-04-12T17:12:56.683Z,1164.00
2018-04-12T17:14:49.816Z,1112.00
2018-04-12T17:15:49.916Z,1072.00
2018-04-12T17:17:42.894Z,996.00
2018-04-12T17:18:42.894Z,960.00
2018-04-12T17:20:35.994Z,916.00
2018-04-12T17:21:35.995Z,892.00
2018-04-12T17:23:28.981Z,864.00
2018-04-12T17:24:28.923Z,848.00
2018-04-12T17:26:24.919Z,820.00
2018-04-12T17:27:24.928Z,812.00
2018-04-12T17:29:17.861Z,804.00
2018-04-12T17:30:17.884Z,800.00
2018-04-12T17:32:10.836Z,792.00
2018-04-12T17:33:10.840Z,792.00
2018-04-12T17:35:03.765Z,776.00
2018-04-12T17:36:03.791Z,768.00
2018-04-12T17:37:56.735Z,752.00
2018-04-12T17:38:56.743Z,748.00
2018-04-12T17:40:49.679Z,740.00
2018-04-12T17:41:49.706Z,736.00
2018-04-12T17:43:42.644Z,736.00
2018-04-12T17:44:42.655Z,736.00
2018-04-12T17:46:35.597Z,704.00
2018-04-12T17:47:35.605Z,684.00